Etusivu
METAR-TAF:

METAR-TAF

Lentoasemat :

Adrar, Algeria

Leveyspiiri: 27-53N, Pituuspiiri: 000-17W, korkeus merenpinnasta: 263 m

Tämänhetkinen sää

Tämä raportti tehtiin 1 tunti ja 0 minuuttia sitten, kello 23.00 UTC
Tuuli 10 kn idästä
Lämpötila 10°C
Kosteus 46%
Ilmanpaine 1023 hPa
Näkyvyys 10 km tai enemmän
ei pilviä alle 1500 m:ssä eikä cumulonimbus-pilviä

METAR: DAUA 102300Z 09010KT CAVOK 10/M01 Q1023

Aika: 01:00 (00:00 UTC)

Sääennuste

Tämä raportti tehtiin 1 tunti ja 0 minuuttia sitten, kello 23.00 UTC
Ennuste voimassa 11. päivästä klo 00 UTC - 11. päivään klo 24 UTC
Tuuli 10 kn koillisesta
Näkyvyys 10 km tai enemmän
ei pilviä alle 1500 m:ssä eikä cumulonimbus-pilviä

TAF: DAUA 102300Z 1100/1124 04010KT CAVOK

Säähavainnot ja -ennusteet yli 4000 lentoasemalta (METAR- ja TAF-raportit).

Käytössä olevat sääasemat on merkitty karttaan keltaisilla ja punaisilla pisteillä.

Aseta hiiri pisteen päälle nähdäksesi sääaseman nimen.

Klikkaa sitten nähdäksesi säähavainnot ja -ennusteet.

Kartan vaihtaminen: klikkaa mustalla rastilla varustettuja vihreitä pisteitä, niin voit zoomata sisään; viivalla varustettua vihreää pistettä, niin voit zoomata ulos tai vihreitä nuolia, niin pääset viereisille kartoille.


METAR-TAF: